Time;durP1;ratioP1;P1;durP2;ratioP2;P2;SDS_P1;SDS_P2;PMS_P1;PMS_P2;Temp;Humidity;BMP_temperature;BMP_pressure;BME280_temperature;BME280_humidity;BME280_pressure;Samples;Min_cycle;Max_cycle;Signal;HPM_P1;HPM_P2
2023/08/17 00:00:20;;;;;;;2.30;0.40;;;18.20;99.90;;;;;;4957616;28;20027;-82
2023/08/17 00:02:45;;;;;;;1.45;0.52;;;18.20;99.90;;;;;;4965026;28;20046;-82
2023/08/17 00:05:11;;;;;;;3.53;0.47;;;18.20;99.90;;;;;;4958001;28;20394;-82
2023/08/17 00:07:37;;;;;;;1.63;0.30;;;18.10;99.90;;;;;;4952092;28;20063;-82
2023/08/17 00:10:03;;;;;;;1.55;0.25;;;18.20;99.90;;;;;;4962845;28;20038;-83
2023/08/17 00:12:29;;;;;;;0.95;0.20;;;18.20;99.90;;;;;;4963469;28;20027;-82
2023/08/17 00:14:55;;;;;;;1.20;0.30;;;18.20;99.90;;;;;;4957895;28;20114;-83
2023/08/17 00:17:21;;;;;;;1.77;0.25;;;18.20;99.90;;;;;;4965936;28;20042;-83
2023/08/17 00:19:47;;;;;;;1.23;0.20;;;18.10;99.90;;;;;;4964748;28;20024;-82
2023/08/17 00:22:13;;;;;;;1.23;0.20;;;18.10;99.90;;;;;;4948833;28;20043;-83
2023/08/17 00:24:40;;;;;;;1.80;0.30;;;18.10;99.90;;;;;;4950648;28;20031;-82
2023/08/17 00:27:06;;;;;;;1.42;0.25;;;18.10;99.90;;;;;;4949320;28;20089;-82
2023/08/17 00:29:32;;;;;;;1.88;0.35;;;18.10;99.90;;;;;;4962319;28;20030;-82
2023/08/17 00:31:57;;;;;;;1.58;0.30;;;18.10;99.90;;;;;;4962672;28;20043;-83
2023/08/17 00:34:23;;;;;;;2.15;0.28;;;18.00;99.90;;;;;;4960306;28;20169;-81
2023/08/17 00:36:49;;;;;;;0.88;0.20;;;18.00;99.90;;;;;;4947138;28;20054;-82
2023/08/17 00:39:14;;;;;;;1.52;0.30;;;18.00;99.90;;;;;;4950292;28;20468;-82
2023/08/17 00:41:40;;;;;;;1.90;0.30;;;17.90;99.90;;;;;;4962469;28;20529;-82
2023/08/17 00:44:06;;;;;;;2.10;0.32;;;17.90;99.90;;;;;;4943657;28;20554;-83
2023/08/17 00:46:33;;;;;;;1.88;0.30;;;17.80;99.90;;;;;;4967523;28;20050;-82
2023/08/17 00:48:59;;;;;;;1.77;0.35;;;17.80;99.90;;;;;;4947409;28;20027;-83
2023/08/17 00:51:26;;;;;;;0.80;0.30;;;17.80;99.90;;;;;;4951799;28;20034;-83
2023/08/17 00:53:57;;;;;;;2.00;0.30;;;17.80;99.90;;;;;;4948027;28;20032;-82
2023/08/17 00:56:22;;;;;;;1.10;0.20;;;17.90;99.90;;;;;;4958199;28;20038;-82
2023/08/17 00:58:49;;;;;;;1.23;0.30;;;17.80;99.90;;;;;;4955014;28;20018;-82
2023/08/17 01:01:15;;;;;;;0.85;0.20;;;17.70;99.90;;;;;;4942712;28;20078;-82
2023/08/17 01:03:41;;;;;;;1.52;0.30;;;17.80;99.90;;;;;;4962693;28;20046;-82
2023/08/17 01:06:08;;;;;;;1.42;0.30;;;17.80;99.90;;;;;;4950037;28;20383;-82
2023/08/17 01:08:34;;;;;;;1.20;0.30;;;17.80;99.90;;;;;;4959004;28;20100;-82
2023/08/17 01:11:04;;;;;;;3.45;0.40;;;17.70;99.90;;;;;;4962553;28;20034;-82
2023/08/17 01:13:38;;;;;;;1.55;0.30;;;17.60;99.90;;;;;;4957959;28;20023;-82
2023/08/17 01:16:09;;;;;;;1.05;0.30;;;17.60;99.90;;;;;;4948773;28;20085;-82
2023/08/17 01:18:37;;;;;;;2.67;0.60;;;17.60;99.90;;;;;;4970237;28;20046;-82
2023/08/17 01:21:06;;;;;;;1.70;0.30;;;17.60;99.90;;;;;;4956092;28;20030;-82
2023/08/17 01:23:32;;;;;;;2.38;0.30;;;17.60;99.90;;;;;;4963416;28;20081;-82
2023/08/17 01:25:58;;;;;;;3.05;0.28;;;17.70;99.90;;;;;;4960026;28;20400;-82
2023/08/17 01:28:24;;;;;;;1.33;0.30;;;17.70;99.90;;;;;;4957993;28;20019;-82
2023/08/17 01:31:08;;;;;;;1.60;0.28;;;17.60;99.90;;;;;;4961966;28;20031;-82
2023/08/17 01:33:49;;;;;;;1.75;0.30;;;17.60;99.90;;;;;;4958121;28;20063;-82
2023/08/17 01:36:20;;;;;;;2.17;0.40;;;17.60;99.90;;;;;;4957808;28;20037;-83
2023/08/17 01:38:46;;;;;;;3.33;0.40;;;17.50;99.90;;;;;;4958806;28;20126;-83
2023/08/17 01:41:15;;;;;;;1.70;0.30;;;17.50;99.90;;;;;;4947712;28;20034;-82
2023/08/17 01:43:45;;;;;;;2.05;0.20;;;17.50;99.90;;;;;;4944959;28;20090;-83
2023/08/17 01:46:18;;;;;;;2.20;0.30;;;17.60;99.90;;;;;;4960989;28;20670;-82
2023/08/17 01:48:45;;;;;;;2.58;0.50;;;17.50;99.90;;;;;;4961366;28;20035;-82
2023/08/17 01:51:12;;;;;;;2.65;0.40;;;17.50;99.90;;;;;;4947222;28;20466;-83
2023/08/17 01:53:38;;;;;;;2.67;0.30;;;17.50;99.90;;;;;;4959276;28;20046;-82
2023/08/17 01:56:03;;;;;;;1.98;0.40;;;17.50;99.90;;;;;;4958479;28;20031;-83
2023/08/17 01:58:29;;;;;;;1.38;0.30;;;17.40;99.90;;;;;;4950770;28;20054;-82
2023/08/17 02:00:55;;;;;;;2.55;0.40;;;17.40;99.90;;;;;;4951667;28;20125;-82
2023/08/17 02:03:20;;;;;;;1.42;0.40;;;17.30;99.90;;;;;;4940125;28;20039;-82
2023/08/17 02:05:47;;;;;;;1.80;0.50;;;17.30;99.90;;;;;;4967636;28;20025;-82
2023/08/17 02:08:14;;;;;;;2.28;0.52;;;17.20;99.90;;;;;;4943909;28;21534;-82
2023/08/17 02:10:40;;;;;;;1.77;0.30;;;17.20;99.90;;;;;;4944135;28;20058;-82
2023/08/17 02:13:05;;;;;;;1.60;0.38;;;17.10;99.90;;;;;;4958770;28;20472;-83
2023/08/17 02:15:31;;;;;;;2.90;0.40;;;17.00;99.90;;;;;;4943836;28;20030;-82
2023/08/17 02:18:00;;;;;;;2.55;0.40;;;17.00;99.90;;;;;;4944202;28;20038;-82
2023/08/17 02:20:26;;;;;;;1.65;0.50;;;17.00;99.90;;;;;;4945074;28;20138;-82
2023/08/17 02:22:51;;;;;;;1.50;0.40;;;16.90;99.90;;;;;;4958658;28;20555;-82
2023/08/17 02:25:17;;;;;;;0.88;0.20;;;16.90;99.90;;;;;;4963623;28;20026;-82
2023/08/17 02:27:43;;;;;;;3.45;0.50;;;16.90;99.90;;;;;;4962577;28;20034;-82
2023/08/17 02:30:10;;;;;;;2.53;0.50;;;16.90;99.90;;;;;;4960013;28;20114;-82
2023/08/17 02:32:35;;;;;;;2.80;0.40;;;16.80;99.90;;;;;;4960986;28;20550;-81
2023/08/17 02:35:01;;;;;;;1.80;0.55;;;16.90;99.90;;;;;;4958842;28;20130;-82
2023/08/17 02:37:27;;;;;;;3.33;0.50;;;16.80;99.90;;;;;;4949708;28;20416;-82
2023/08/17 02:39:53;;;;;;;1.88;0.40;;;16.80;99.90;;;;;;4947879;28;20051;-82
2023/08/17 02:42:19;;;;;;;1.48;0.50;;;16.80;99.90;;;;;;4957769;28;20031;-82
2023/08/17 02:44:45;;;;;;;1.88;0.40;;;16.70;99.90;;;;;;4967801;28;20090;-82
2023/08/17 02:47:10;;;;;;;3.80;0.60;;;16.70;99.90;;;;;;4968774;28;20549;-82
2023/08/17 02:49:36;;;;;;;4.00;0.50;;;16.60;99.90;;;;;;4961307;28;20031;-82
2023/08/17 02:52:02;;;;;;;1.42;0.45;;;16.60;99.90;;;;;;4944843;28;20037;-82
2023/08/17 02:54:27;;;;;;;2.35;0.30;;;16.60;99.90;;;;;;4953758;28;20026;-82
2023/08/17 02:56:53;;;;;;;3.13;0.50;;;16.60;99.90;;;;;;4953768;28;20070;-82
2023/08/17 02:59:20;;;;;;;2.97;0.47;;;16.60;99.90;;;;;;4962255;28;20077;-82
2023/08/17 03:01:46;;;;;;;2.30;0.50;;;16.60;99.90;;;;;;4956452;28;20583;-83
2023/08/17 03:04:13;;;;;;;5.15;1.05;;;16.50;99.90;;;;;;4963690;28;20023;-83
2023/08/17 03:06:38;;;;;;;4.75;0.80;;;16.50;99.90;;;;;;4962278;28;20404;-82
2023/08/17 03:09:04;;;;;;;3.25;0.70;;;16.50;99.90;;;;;;4966287;28;20348;-82
2023/08/17 03:11:30;;;;;;;3.15;0.50;;;16.50;99.90;;;;;;4965802;28;20083;-82
2023/08/17 03:13:59;;;;;;;1.30;0.30;;;16.50;99.90;;;;;;4965786;28;20409;-82
2023/08/17 03:16:26;;;;;;;;;;;16.60;99.90;;;;;;4948624;28;20034;-83
2023/08/17 03:18:52;;;;;;;4.22;0.43;;;16.50;99.90;;;;;;4953203;28;19910;-82
2023/08/17 03:21:19;;;;;;;3.05;0.73;;;16.60;99.90;;;;;;4945796;28;20507;-82
2023/08/17 03:23:46;;;;;;;3.92;0.60;;;16.50;99.90;;;;;;4953030;28;20065;-83
2023/08/17 03:26:12;;;;;;;3.17;0.60;;;16.50;99.90;;;;;;4962469;28;20132;-82
2023/08/17 03:28:37;;;;;;;1.05;0.30;;;16.50;99.90;;;;;;4952909;28;20542;-83
2023/08/17 03:31:03;;;;;;;1.67;0.30;;;16.50;99.90;;;;;;4962850;28;20416;-82
2023/08/17 03:33:29;;;;;;;2.28;0.30;;;16.50;99.90;;;;;;4960289;28;20256;-83
2023/08/17 03:35:55;;;;;;;2.60;0.40;;;16.50;99.90;;;;;;4945607;28;20098;-82
2023/08/17 03:38:21;;;;;;;1.50;0.40;;;16.50;99.90;;;;;;4952717;28;20027;-82
2023/08/17 03:40:47;;;;;;;2.47;0.40;;;16.50;99.90;;;;;;4948049;28;20033;-82
2023/08/17 03:43:13;;;;;;;1.48;0.40;;;16.50;99.90;;;;;;4964270;28;20039;-81
2023/08/17 03:45:41;;;;;;;1.88;0.43;;;16.50;99.90;;;;;;4960637;28;20103;-82
2023/08/17 03:48:07;;;;;;;2.40;0.35;;;16.40;99.90;;;;;;4948527;28;20063;-82
2023/08/17 03:50:33;;;;;;;3.45;0.60;;;16.40;99.90;;;;;;4963554;28;20061;-82
2023/08/17 03:52:58;;;;;;;1.30;0.40;;;16.40;99.90;;;;;;4959842;28;20094;-82
2023/08/17 03:55:24;;;;;;;1.85;0.40;;;16.40;99.90;;;;;;4962296;28;20487;-81
2023/08/17 03:57:50;;;;;;;3.10;0.30;;;16.40;99.90;;;;;;4952437;28;20122;-82
2023/08/17 04:00:16;;;;;;;3.67;0.40;;;16.40;99.90;;;;;;4964977;28;20111;-82
2023/08/17 04:02:42;;;;;;;1.65;0.40;;;16.40;99.90;;;;;;4959186;28;20047;-82
2023/08/17 04:05:11;;;;;;;1.15;0.30;;;16.40;99.90;;;;;;4961168;28;20030;-82
2023/08/17 04:07:37;;;;;;;1.33;0.40;;;16.50;99.90;;;;;;4950405;28;20043;-83
2023/08/17 04:10:05;;;;;;;1.83;0.40;;;16.40;99.90;;;;;;4966898;28;20029;-82
2023/08/17 04:12:31;;;;;;;2.13;0.43;;;16.40;99.90;;;;;;4951027;28;20037;-82
2023/08/17 04:14:57;;;;;;;2.22;0.47;;;16.40;99.90;;;;;;4956759;28;20027;-82
2023/08/17 04:17:23;;;;;;;1.77;0.50;;;16.40;99.90;;;;;;4944834;28;20037;-82
2023/08/17 04:19:48;;;;;;;1.48;0.40;;;16.40;99.90;;;;;;4951899;28;20027;-82
2023/08/17 04:22:14;;;;;;;1.98;0.30;;;16.40;99.90;;;;;;4946901;28;20093;-83
2023/08/17 04:24:40;;;;;;;1.90;0.40;;;16.40;99.90;;;;;;4950040;28;20028;-82
2023/08/17 04:27:06;;;;;;;4.20;0.52;;;16.40;99.90;;;;;;4960916;28;20039;-82
2023/08/17 04:29:32;;;;;;;2.53;0.30;;;16.30;99.90;;;;;;4963424;28;20023;-83
2023/08/17 04:32:01;;;;;;;1.15;0.30;;;16.30;99.90;;;;;;4950795;28;20054;-82
2023/08/17 04:34:26;;;;;;;1.30;0.30;;;16.40;99.90;;;;;;4962869;28;20082;-82
2023/08/17 04:36:52;;;;;;;1.27;0.30;;;16.40;99.90;;;;;;4958616;28;20027;-82
2023/08/17 04:39:18;;;;;;;1.83;0.40;;;16.40;99.90;;;;;;4960867;28;20039;-83
2023/08/17 04:41:43;;;;;;;0.90;0.20;;;16.40;99.90;;;;;;4956648;28;20027;-83
2023/08/17 04:44:12;;;;;;;0.73;0.30;;;16.40;99.90;;;;;;4958613;28;20456;-83
2023/08/17 04:46:38;;;;;;;2.10;0.40;;;16.40;99.90;;;;;;4956542;28;20106;-83
2023/08/17 04:49:04;;;;;;;1.67;0.30;;;16.40;99.90;;;;;;4949556;28;20090;-82
2023/08/17 04:51:30;;;;;;;0.88;0.30;;;16.30;99.90;;;;;;4943112;28;20550;-81
2023/08/17 04:53:56;;;;;;;1.55;0.30;;;16.40;99.90;;;;;;4958502;28;20031;-82
2023/08/17 04:56:22;;;;;;;3.58;0.40;;;16.40;99.90;;;;;;4963050;28;20023;-82
2023/08/17 04:58:48;;;;;;;2.17;0.40;;;16.30;99.90;;;;;;4944558;28;20022;-82
2023/08/17 05:01:14;;;;;;;1.73;0.63;;;16.40;99.90;;;;;;4963549;28;20023;-82
2023/08/17 05:03:40;;;;;;;0.75;0.30;;;16.50;99.90;;;;;;4958062;28;20420;-82
2023/08/17 05:06:06;;;;;;;1.38;0.30;;;16.40;99.90;;;;;;4949120;28;20028;-82
2023/08/17 05:08:32;;;;;;;1.77;0.40;;;16.50;99.90;;;;;;4949152;28;20491;-82
2023/08/17 05:10:58;;;;;;;0.60;0.28;;;16.50;99.90;;;;;;4955043;28;20032;-83
2023/08/17 05:13:25;;;;;;;1.52;0.30;;;16.50;99.90;;;;;;4944769;28;20074;-82
2023/08/17 05:15:52;;;;;;;1.73;0.30;;;16.50;99.90;;;;;;4962731;28;20054;-81
2023/08/17 05:18:18;;;;;;;2.50;0.40;;;16.50;99.90;;;;;;4958521;28;20027;-82
2023/08/17 05:20:45;;;;;;;3.78;0.40;;;16.40;99.90;;;;;;4909299;28;20075;-82
2023/08/17 05:23:11;;;;;;;2.42;0.40;;;16.40;99.90;;;;;;4952675;28;20150;-82
2023/08/17 05:25:37;;;;;;;2.63;0.35;;;16.40;99.90;;;;;;4957126;28;20038;-82
2023/08/17 05:28:03;;;;;;;0.90;0.20;;;16.40;99.90;;;;;;4959061;28;20030;-82
2023/08/17 05:30:29;;;;;;;2.42;0.30;;;16.40;99.90;;;;;;4943277;28;20023;-82
2023/08/17 05:32:54;;;;;;;1.98;0.30;;;16.40;99.90;;;;;;4962801;28;20039;-82
2023/08/17 05:35:21;;;;;;;1.95;0.30;;;16.40;99.90;;;;;;4946734;28;20043;-81
2023/08/17 05:37:46;;;;;;;1.67;0.30;;;16.40;99.90;;;;;;4961585;28;20026;-82
2023/08/17 05:40:12;;;;;;;3.33;0.47;;;16.40;99.90;;;;;;4942452;28;20034;-82
2023/08/17 05:42:38;;;;;;;1.95;0.40;;;16.30;99.90;;;;;;4959566;28;20078;-82
2023/08/17 05:45:04;;;;;;;2.08;0.40;;;16.40;99.90;;;;;;4963812;28;20075;-81
2023/08/17 05:47:30;;;;;;;2.60;0.32;;;16.30;99.90;;;;;;4944995;28;20046;-82
2023/08/17 05:49:56;;;;;;;1.85;0.40;;;16.30;99.90;;;;;;4944384;28;20023;-82
2023/08/17 05:52:21;;;;;;;1.27;0.22;;;16.30;99.90;;;;;;4948740;28;20399;-83
2023/08/17 05:54:47;;;;;;;1.17;0.30;;;16.30;99.90;;;;;;4963646;28;20030;-82
2023/08/17 05:57:13;;;;;;;0.85;0.20;;;16.40;99.90;;;;;;4957669;28;20094;-82
2023/08/17 05:59:38;;;;;;;2.20;0.45;;;16.40;99.90;;;;;;4949957;28;20026;-82
2023/08/17 06:02:05;;;;;;;2.50;0.28;;;16.40;99.90;;;;;;4954572;28;20046;-82
2023/08/17 06:04:30;;;;;;;1.42;0.30;;;16.50;99.90;;;;;;4945564;28;20479;-82
2023/08/17 06:06:56;;;;;;;1.40;0.35;;;16.50;99.90;;;;;;4955994;28;20042;-82
2023/08/17 06:09:22;;;;;;;2.15;0.40;;;16.60;99.90;;;;;;4948328;28;20600;-82
2023/08/17 06:11:47;;;;;;;3.08;0.60;;;16.60;99.90;;;;;;4957552;28;20031;-82
2023/08/17 06:14:13;;;;;;;2.53;0.40;;;16.70;99.90;;;;;;4963680;28;20027;-82
2023/08/17 06:16:39;;;;;;;2.60;0.40;;;17.00;99.90;;;;;;4957364;28;20041;-82
2023/08/17 06:19:05;;;;;;;3.70;0.52;;;17.20;99.90;;;;;;4967006;28;20395;-81
2023/08/17 06:21:30;;;;;;;2.83;0.50;;;17.30;99.90;;;;;;4975530;28;20047;-82
2023/08/17 06:23:56;;;;;;;4.72;0.60;;;17.30;99.90;;;;;;4959273;28;20097;-83
2023/08/17 06:26:21;;;;;;;2.55;0.68;;;17.40;99.90;;;;;;4946090;28;20486;-82
2023/08/17 06:28:47;;;;;;;4.72;0.60;;;17.50;99.90;;;;;;4953629;28;20034;-82
2023/08/17 06:31:16;;;;;;;2.80;0.40;;;17.40;99.90;;;;;;4945701;28;20114;-82
2023/08/17 06:33:42;;;;;;;1.75;0.32;;;17.50;99.90;;;;;;4964691;28;20043;-83
2023/08/17 06:36:07;;;;;;;1.25;0.30;;;17.50;99.90;;;;;;4960757;28;20030;-82
2023/08/17 06:38:33;;;;;;;2.75;0.40;;;17.60;99.90;;;;;;4961030;28;20462;-82
2023/08/17 06:40:59;;;;;;;2.35;0.40;;;17.60;99.90;;;;;;4958835;28;20031;-82
2023/08/17 06:43:24;;;;;;;1.75;0.40;;;17.70;99.90;;;;;;4946410;28;20043;-82
2023/08/17 06:45:50;;;;;;;3.20;0.50;;;17.70;99.90;;;;;;4962177;28;20031;-82
2023/08/17 06:48:16;;;;;;;1.40;0.30;;;17.60;99.90;;;;;;4949728;28;20038;-82
2023/08/17 06:50:41;;;;;;;1.35;0.40;;;17.80;99.90;;;;;;4947248;28;20542;-82
2023/08/17 06:53:07;;;;;;;1.05;0.30;;;17.70;99.90;;;;;;4964998;28;20034;-83
2023/08/17 06:55:33;;;;;;;4.35;0.50;;;17.80;99.90;;;;;;4962626;28;20050;-81
2023/08/17 06:57:58;;;;;;;1.45;0.40;;;17.90;99.90;;;;;;4960103;28;20028;-82
2023/08/17 07:00:24;;;;;;;2.90;0.45;;;17.80;99.90;;;;;;4972922;28;20442;-82
2023/08/17 07:02:50;;;;;;;2.38;0.40;;;18.00;99.90;;;;;;4951260;28;20837;-81
2023/08/17 07:05:16;;;;;;;1.40;0.40;;;18.10;99.90;;;;;;4943861;28;20045;-82
2023/08/17 07:07:43;;;;;;;2.10;0.47;;;18.00;99.90;;;;;;4945894;28;20173;-83
2023/08/17 07:10:10;;;;;;;3.40;0.50;;;17.80;99.90;;;;;;4946725;28;20479;-82
2023/08/17 07:12:37;;;;;;;4.78;0.70;;;17.70;99.90;;;;;;4943396;28;20019;-82
2023/08/17 07:15:04;;;;;;;3.13;0.60;;;17.80;99.90;;;;;;4959533;28;20031;-82
2023/08/17 07:17:30;;;;;;;2.05;0.40;;;18.00;99.90;;;;;;4952527;28;20034;-83
2023/08/17 07:19:56;;;;;;;3.78;0.30;;;18.10;99.90;;;;;;4942163;28;20082;-82
2023/08/17 07:22:21;;;;;;;1.70;0.40;;;18.20;99.90;;;;;;4946981;28;20038;-82
2023/08/17 07:24:47;;;;;;;3.30;0.45;;;18.20;99.90;;;;;;4946872;28;20126;-82
2023/08/17 07:27:13;;;;;;;2.40;0.55;;;18.10;99.90;;;;;;4951001;28;20031;-81
2023/08/17 07:29:38;;;;;;;1.20;0.30;;;18.10;99.90;;;;;;4945189;28;20126;-83
2023/08/17 07:32:05;;;;;;;1.50;0.45;;;18.20;99.90;;;;;;4945014;28;20114;-82
2023/08/17 07:34:31;;;;;;;3.45;0.40;;;18.20;99.90;;;;;;4946158;28;20522;-81
2023/08/17 07:36:57;;;;;;;3.67;0.40;;;18.20;99.90;;;;;;4957087;28;20106;-82
2023/08/17 07:39:23;;;;;;;1.45;0.32;;;18.20;99.90;;;;;;4945048;28;20026;-82
2023/08/17 07:41:48;;;;;;;1.40;0.35;;;18.10;99.90;;;;;;4956555;28;20106;-82
2023/08/17 07:44:14;;;;;;;2.03;0.40;;;18.10;99.90;;;;;;4964673;28;20590;-82
2023/08/17 07:46:40;;;;;;;4.60;0.50;;;18.00;99.90;;;;;;4941924;28;20036;-82
2023/08/17 07:49:06;;;;;;;1.67;0.50;;;17.90;99.90;;;;;;4947024;28;20035;-82
2023/08/17 07:51:33;;;;;;;2.88;0.47;;;17.90;99.90;;;;;;4954660;28;20020;-82
2023/08/17 07:54:02;;;;;;;1.67;0.35;;;17.90;99.90;;;;;;4942196;28;20023;-83
2023/08/17 07:56:28;;;;;;;2.13;0.30;;;17.90;99.90;;;;;;4959448;28;20066;-83
2023/08/17 07:58:54;;;;;;;1.92;0.45;;;17.90;99.90;;;;;;4960338;28;20057;-82
2023/08/17 08:01:20;;;;;;;1.58;0.30;;;17.90;99.90;;;;;;4963550;28;20058;-82
2023/08/17 08:03:46;;;;;;;1.70;0.40;;;18.00;99.90;;;;;;4962454;28;20069;-82
2023/08/17 08:06:12;;;;;;;2.70;0.38;;;18.00;99.90;;;;;;4956363;28;20495;-82
2023/08/17 08:08:39;;;;;;;2.38;0.30;;;18.10;99.90;;;;;;4950396;28;20076;-81
2023/08/17 08:11:05;;;;;;;1.55;0.30;;;18.10;99.90;;;;;;4959447;28;20031;-82
2023/08/17 08:13:31;;;;;;;1.17;0.40;;;18.20;99.90;;;;;;4958363;28;20035;-82
2023/08/17 08:15:58;;;;;;;2.13;0.40;;;18.30;99.90;;;;;;4949927;28;20042;-82
2023/08/17 08:18:25;;;;;;;2.15;0.40;;;18.10;99.90;;;;;;4959601;28;20031;-82
2023/08/17 08:20:50;;;;;;;1.15;0.35;;;18.30;99.90;;;;;;4961759;28;20027;-82
2023/08/17 08:23:16;;;;;;;1.83;0.50;;;18.30;99.90;;;;;;4960210;28;20582;-82
2023/08/17 08:25:42;;;;;;;3.10;0.50;;;18.30;99.90;;;;;;4958915;28;20081;-82
2023/08/17 08:28:09;;;;;;;2.33;0.40;;;18.20;99.90;;;;;;4962735;28;20860;-82
2023/08/17 08:30:34;;;;;;;3.25;0.50;;;18.30;99.90;;;;;;4946970;28;20126;-82
2023/08/17 08:33:01;;;;;;;4.22;0.43;;;18.10;99.90;;;;;;4951386;28;20129;-82
2023/08/17 08:35:28;;;;;;;2.72;0.50;;;18.10;99.90;;;;;;4947368;28;20034;-82
2023/08/17 08:37:55;;;;;;;2.05;0.30;;;18.00;99.90;;;;;;4962053;28;20019;-82
2023/08/17 08:40:27;;;;;;;2.35;0.40;;;18.10;99.90;;;;;;4943673;28;20485;-81
2023/08/17 08:42:53;;;;;;;3.22;0.40;;;18.10;99.90;;;;;;4961283;28;20085;-82
2023/08/17 08:45:21;;;;;;;3.13;0.50;;;18.00;99.90;;;;;;4972528;28;20415;-82
2023/08/17 08:47:47;;;;;;;1.85;0.30;;;17.90;99.90;;;;;;4956021;28;20059;-81
2023/08/17 08:50:18;;;;;;;1.30;0.30;;;18.10;99.90;;;;;;4944842;28;20038;-82
2023/08/17 08:53:13;;;;;;;1.67;0.40;;;18.10;99.90;;;;;;4941298;28;20027;-81
2023/08/17 08:55:59;;;;;;;1.67;0.30;;;18.20;99.90;;;;;;4938713;28;20084;-82
2023/08/17 08:58:29;;;;;;;1.60;0.30;;;18.20;99.90;;;;;;4942128;28;20034;-82
2023/08/17 09:00:57;;;;;;;2.85;0.50;;;18.20;99.90;;;;;;4958880;28;20086;-81
2023/08/17 09:03:23;;;;;;;3.60;0.60;;;18.10;99.90;;;;;;4956115;28;20050;-82
2023/08/17 09:05:50;;;;;;;1.83;0.40;;;18.10;99.90;;;;;;4943992;28;20027;-82
2023/08/17 09:08:22;;;;;;;2.10;0.40;;;18.10;99.90;;;;;;4949034;28;20317;-81
2023/08/17 09:10:48;;;;;;;2.35;0.60;;;18.30;99.90;;;;;;4957510;28;20031;-82
2023/08/17 09:13:14;;;;;;;1.60;0.40;;;18.30;99.90;;;;;;4953818;28;20391;-81
2023/08/17 09:15:40;;;;;;;2.03;0.43;;;18.40;99.90;;;;;;4962240;28;20031;-82
2023/08/17 09:18:09;;;;;;;3.38;0.50;;;18.40;99.90;;;;;;4945241;28;20037;-82
2023/08/17 09:20:40;;;;;;;2.05;0.40;;;18.50;99.90;;;;;;4944731;28;20027;-82
2023/08/17 09:23:14;;;;;;;1.90;0.50;;;18.50;99.90;;;;;;4954178;28;20131;-81
2023/08/17 09:25:41;;;;;;;1.27;0.50;;;18.50;99.90;;;;;;4955392;28;20113;-82
2023/08/17 09:28:12;;;;;;;2.33;0.50;;;18.50;99.90;;;;;;4944937;28;20034;-82
2023/08/17 09:30:52;;;;;;;3.25;0.80;;;18.70;99.90;;;;;;4942013;28;20070;-81
2023/08/17 09:33:22;;;;;;;2.25;0.50;;;18.80;99.90;;;;;;4959797;28;20142;-81
2023/08/17 09:35:49;;;;;;;2.20;0.60;;;18.80;99.90;;;;;;4958281;28;20106;-82
2023/08/17 09:38:15;;;;;;;2.78;0.68;;;18.80;99.90;;;;;;4957049;28;20094;-82
2023/08/17 09:40:42;;;;;;;4.25;0.70;;;18.90;99.90;;;;;;4958371;28;20436;-81
2023/08/17 09:43:08;;;;;;;2.50;0.60;;;18.90;99.90;;;;;;4957127;28;20130;-82
2023/08/17 09:45:37;;;;;;;2.05;0.60;;;19.00;99.90;;;;;;4942123;28;20471;-82
2023/08/17 09:48:03;;;;;;;4.80;0.93;;;19.20;99.90;;;;;;4953515;28;20506;-80
2023/08/17 09:50:29;;;;;;;3.67;0.82;;;19.10;99.90;;;;;;4943045;28;20481;-83
2023/08/17 09:52:55;;;;;;;2.33;0.70;;;19.30;99.90;;;;;;4961542;28;20074;-83
2023/08/17 09:55:24;;;;;;;4.63;1.15;;;19.30;99.90;;;;;;4961799;28;20042;-82
2023/08/17 09:57:51;;;;;;;2.50;1.10;;;19.20;99.90;;;;;;4960881;28;20399;-82
2023/08/17 10:00:19;;;;;;;2.25;0.70;;;19.10;99.90;;;;;;4954660;28;20503;-82
2023/08/17 10:02:48;;;;;;;6.13;1.33;;;19.10;99.90;;;;;;4939049;28;20039;-82
2023/08/17 10:05:18;;;;;;;3.15;0.80;;;19.00;99.90;;;;;;4971063;28;20122;-82
2023/08/17 10:07:48;;;;;;;2.58;1.08;;;19.10;99.90;;;;;;4955407;28;20074;-81
2023/08/17 10:10:21;;;;;;;2.08;0.63;;;19.10;99.90;;;;;;4970030;28;20031;-82
2023/08/17 10:13:11;;;;;;;4.25;0.95;;;19.10;99.90;;;;;;4956748;28;20042;-82
2023/08/17 10:16:04;;;;;;;4.18;1.58;;;19.10;99.90;;;;;;4941449;28;20119;-82
2023/08/17 10:18:39;;;;;;;4.63;0.90;;;19.00;99.90;;;;;;4955483;28;20030;-81
2023/08/17 10:21:13;;;;;;;3.70;1.08;;;19.00;99.90;;;;;;4953255;28;20046;-81
2023/08/17 10:23:39;;;;;;;3.92;1.65;;;19.00;99.90;;;;;;4962457;28;20598;-82
2023/08/17 10:26:08;;;;;;;3.08;1.15;;;18.90;99.90;;;;;;4945565;28;20057;-82
2023/08/17 10:28:34;;;;;;;4.50;1.55;;;19.10;99.90;;;;;;4953660;28;20395;-82
2023/08/17 10:31:00;;;;;;;2.75;1.08;;;19.10;99.90;;;;;;4955676;28;20511;-82
2023/08/17 10:33:27;;;;;;;3.60;0.93;;;19.40;99.90;;;;;;4953374;28;20038;-82
2023/08/17 10:35:54;;;;;;;2.70;0.82;;;19.50;99.90;;;;;;4960109;28;20077;-82
2023/08/17 10:38:19;;;;;;;3.60;1.10;;;19.40;99.90;;;;;;4971325;28;20119;-82
2023/08/17 10:41:07;;;;;;;4.28;0.80;;;19.50;99.90;;;;;;4957069;28;20109;-81
2023/08/17 10:43:34;;;;;;;3.97;0.95;;;19.60;99.90;;;;;;4954607;28;20047;-82
2023/08/17 10:46:16;;;;;;;3.42;1.02;;;19.70;99.90;;;;;;4961355;28;20041;-82
2023/08/17 10:48:44;;;;;;;3.78;0.82;;;19.70;99.90;;;;;;4960776;28;20027;-81
2023/08/17 10:51:13;;;;;;;2.70;1.08;;;19.60;99.90;;;;;;4946429;28;20024;-82
2023/08/17 10:53:45;;;;;;;3.47;1.13;;;19.60;99.90;;;;;;4971844;28;20032;-82
2023/08/17 10:56:13;;;;;;;3.80;1.42;;;19.60;99.90;;;;;;4959771;28;20031;-82
2023/08/17 10:58:40;;;;;;;4.57;2.17;;;19.50;99.90;;;;;;4956400;28;20123;-82
2023/08/17 11:01:07;;;;;;;3.20;1.20;;;19.40;99.90;;;;;;4940994;28;20041;-82
2023/08/17 11:03:33;;;;;;;2.90;1.17;;;19.70;99.90;;;;;;4959910;28;20042;-82
2023/08/17 11:06:14;;;;;;;5.05;1.30;;;19.90;99.90;;;;;;4957866;28;20498;-82
2023/08/17 11:08:51;;;;;;;3.65;1.10;;;19.80;99.90;;;;;;4947027;28;20042;-82
2023/08/17 11:11:20;;;;;;;2.95;1.15;;;19.70;99.90;;;;;;4960009;28;20114;-82
2023/08/17 11:13:46;;;;;;;4.30;1.77;;;19.90;99.90;;;;;;4965193;28;20455;-82
2023/08/17 11:16:13;;;;;;;3.00;1.13;;;19.80;99.90;;;;;;4960964;28;20122;-82
2023/08/17 11:18:41;;;;;;;4.32;1.58;;;20.00;99.90;;;;;;4957183;28;20042;-82
2023/08/17 11:21:08;;;;;;;3.78;1.10;;;20.10;99.90;;;;;;4958299;28;20037;-82
2023/08/17 11:23:35;;;;;;;2.75;1.27;;;20.10;99.90;;;;;;4973395;28;20499;-83
2023/08/17 11:26:01;;;;;;;3.38;1.10;;;20.10;99.90;;;;;;4959481;28;20035;-82
2023/08/17 11:28:36;;;;;;;2.95;1.05;;;20.20;99.90;;;;;;4948756;28;20035;-82
2023/08/17 11:31:10;;;;;;;2.13;0.80;;;20.20;99.90;;;;;;4958923;28;20050;-82
2023/08/17 11:33:37;;;;;;;5.30;1.65;;;20.10;99.90;;;;;;4958664;28;20038;-82
2023/08/17 11:36:05;;;;;;;4.50;2.17;;;19.90;99.90;;;;;;4972221;28;20053;-82
2023/08/17 11:38:36;;;;;;;3.25;1.65;;;19.80;99.90;;;;;;4945305;28;20436;-82
2023/08/17 11:41:02;;;;;;;2.70;1.02;;;19.70;99.90;;;;;;4947872;28;20039;-82
2023/08/17 11:43:29;;;;;;;3.33;0.88;;;19.90;99.90;;;;;;4945299;28;20050;-82
2023/08/17 11:45:55;;;;;;;4.35;1.38;;;19.70;99.90;;;;;;4947638;28;20040;-82
2023/08/17 11:48:21;;;;;;;4.50;1.50;;;19.70;99.90;;;;;;4957621;28;20510;-82
2023/08/17 11:50:49;;;;;;;3.67;0.90;;;19.70;99.90;;;;;;4947265;28;20031;-82
2023/08/17 11:53:14;;;;;;;5.72;2.53;;;19.70;99.90;;;;;;4964640;28;20027;-82
2023/08/17 11:55:40;;;;;;;5.57;2.25;;;19.50;99.90;;;;;;4946555;28;20458;-81
2023/08/17 11:58:07;;;;;;;4.55;2.30;;;19.60;99.90;;;;;;4957976;28;20039;-82
2023/08/17 12:00:41;;;;;;;3.92;2.05;;;19.60;99.90;;;;;;4958498;28;20027;-82
2023/08/17 12:03:07;;;;;;;3.78;2.28;;;19.60;99.90;;;;;;4948046;28;20502;-82
2023/08/17 12:05:33;;;;;;;1.90;0.93;;;19.70;99.90;;;;;;4946603;28;20054;-82
2023/08/17 12:08:02;;;;;;;2.75;1.13;;;19.80;99.90;;;;;;4945383;28;20027;-82
2023/08/17 12:10:38;;;;;;;3.20;1.48;;;19.90;99.90;;;;;;4956588;28;20027;-82
2023/08/17 12:13:04;;;;;;;3.05;1.48;;;20.00;99.90;;;;;;4962170;28;20073;-82
2023/08/17 12:15:35;;;;;;;2.92;1.33;;;19.70;99.90;;;;;;4959622;28;20055;-82
2023/08/17 12:18:04;;;;;;;4.50;2.15;;;20.00;99.90;;;;;;4959109;28;20062;-82
2023/08/17 12:20:30;;;;;;;2.95;2.30;;;19.90;99.90;;;;;;4972419;28;20089;-81
2023/08/17 12:23:00;;;;;;;2.55;1.60;;;20.00;99.90;;;;;;4962937;28;20122;-82
2023/08/17 12:25:26;;;;;;;2.75;1.00;;;20.10;99.90;;;;;;4942572;28;20063;-82
2023/08/17 12:27:52;;;;;;;3.97;2.03;;;20.10;99.90;;;;;;4944914;28;20058;-82
2023/08/17 12:30:27;;;;;;;3.85;2.58;;;20.10;99.90;;;;;;4957439;28;20482;-82
2023/08/17 12:32:53;;;;;;;3.03;2.30;;;20.00;99.90;;;;;;4946631;28;20745;-82
2023/08/17 12:35:21;;;;;;;2.67;1.73;;;20.00;99.90;;;;;;4958368;28;20117;-82
2023/08/17 12:37:47;;;;;;;3.63;1.95;;;20.00;99.90;;;;;;4944998;28;20194;-82
2023/08/17 12:40:13;;;;;;;2.50;1.65;;;20.00;99.90;;;;;;4946981;28;20657;-82
2023/08/17 12:42:39;;;;;;;2.67;1.08;;;20.20;99.90;;;;;;4940725;28;20035;-82
2023/08/17 12:45:05;;;;;;;4.60;2.28;;;20.20;99.90;;;;;;4959909;28;20038;-82
2023/08/17 12:47:30;;;;;;;4.38;1.60;;;20.20;99.90;;;;;;4954250;28;20528;-82